Terminal Aerodrome Forecast
Issued by NWS

Home | Current Version | Previous Version | Text Only | Print | Product List | Glossary On
Versions: 1 2 3 4 5 6 7 8 9 10 11 12 13 14 15 16 17 18 19 20 21
000
FTUS46 KSGX 200600 AAA
TAFCRQ
TAF AMD
KCRQ 200616Z 2006/2106 VRB04KT P6SM SCT013
     FM201000 VRB04KT P6SM BKN010
     FM201700 VRB04KT P6SM SCT010
     FM202000 27008KT P6SM SCT080
     FM210200 VRB04KT P6SM SCT010=

USA.gov is the U.S. government's official web portal to all federal, state and local government web resources and services.